• Join FlightAware (Why Join?)
  • Login
  • US Flag 
08:08AM EDT


 

Airport Tracker/Info


-or-


 

Live Flight TrackerFlight Track Log ✈ N517CP ✈ 18-Jun-2013 ✈ KPIL - KEDC

Flight Track Log - Related Links

Times and Time Zones

All times are in EDT time to prevent confusion due to time zone crossing. See the N517CP flight status page for this flight to view local times or setup timezone preferences in your user account.

Time Position Orientation Groundspeed Altitude Reporting Facility
EDT Latitude Longitude Course Direction KTS MPH feet Rate Location/Type
11:41AM 26.2108 -97.3381 346° North 144 166 2,000  Level Houston Center
11:42AM 26.2672 -97.3536 356° North 144 166 3,200 720 Climbing Houston Center
11:43AM 26.2939 -97.3533 North 148 170 3,600 660 Climbing Houston Center
11:44AM 26.3350 -97.3556 357° North 147 169 4,400 720 Climbing Houston Center
11:45AM 26.3792 -97.3578 357° North 147 169 5,200 720 Climbing Houston Center
11:46AM 26.4200 -97.3606 357° North 148 170 5,900 660 Climbing Houston Center
11:47AM 26.4606 -97.3628 357° North 146 168 6,600 600 Climbing Houston Center
11:47AM 26.4808 -97.3642 356° North 144 166 6,900 540 Climbing Houston Center
11:48AM 26.5025 -97.3658 356° North 141 162 7,200 480 Climbing Houston Center
11:49AM 26.5431 -97.3681 357° North 145 167 7,700 360 Climbing Houston Center
11:50AM 26.5883 -97.3697 358° North 149 171 8,000 120 Climbing Houston Center
11:51AM 26.6358 -97.3728 357° North 167 192 8,000  Level Houston Center
11:52AM 26.6839 -97.3758 357° North 172 198 8,000  Level Houston Center
11:53AM 26.7342 -97.3789 357° North 168 193 8,000  Level Houston Center
11:54AM 26.7833 -97.3811 358° North 174 200 8,000  Level Houston Center
11:55AM 26.8339 -97.3839 357° North 170 196 8,000  Level Houston Center
11:56AM 26.8817 -97.3861 358° North 171 197 8,000  Level Houston Center
11:57AM 26.9306 -97.3903 356° North 174 200 8,000  Level Houston Center
11:58AM 26.9819 -97.3917 359° North 172 198 8,000  Level Houston Center
11:59AM 27.0425 -97.3975 355° North 169 194 8,000  Level Houston Center
12:00PM 27.0792 -97.3972 360° North 167 192 8,000  Level Houston Center
12:01PM 27.1225 -97.4003 356° North 168 193 8,000  Level Houston Center
12:02PM 27.1664 -97.4033 356° North 166 191 8,000  Level Houston Center
12:03PM 27.2308 -97.4069 357° North 168 193 8,000  Level Houston Center
12:04PM 27.2731 -97.4083 358° North 169 194 8,000  Level Houston Center
12:05PM 27.3175 -97.4117 356° North 167 192 8,000  Level Houston Center
12:06PM 27.3581 -97.4156 355° North 167 192 8,000  Level Houston Center
12:07PM 27.4067 -97.4183 357° North 167 192 8,000  Level Houston Center
12:08PM 27.4511 -97.4192 359° North 168 193 8,000  Level Houston Center
12:09PM 27.5019 -97.4217 358° North 168 193 8,000  Level Houston Center
12:10PM 27.5486 -97.4247 357° North 165 190 8,000  Level Houston Center
12:11PM 27.5931 -97.4281 356° North 164 189 8,000  Level Houston Center
12:13PM 27.6503 -97.4303 358° North 165 190 8,000  Level Houston Center
12:14PM 27.6950 -97.4331 357° North 162 186 8,000  Level Houston Center
12:14PM 27.7350 -97.4369 355° North 164 189 8,000 180 Level Houston Center
12:15PM 27.7814 -97.4375 359° North 152 175 8,400 180 Climbing Houston Center
12:17PM 27.8281 -97.4406 357° North 157 181 8,500  Climbing Houston Center
12:18PM 27.8725 -97.4439 356° North 166 191 8,500  Level Houston Center
12:18PM 27.9172 -97.4472 356° North 166 191 8,500  Level Houston Center
12:20PM 27.9756 -97.4481 359° North 167 192 8,500  Level Houston Center
12:21PM 28.0231 -97.4506 357° North 168 193 8,500  Level Houston Center
12:22PM 28.0775 -97.4536 357° North 164 189 8,500  Level Houston Center
12:23PM 28.1219 -97.4550 358° North 164 189 8,500  Level Houston Center
12:24PM 28.1692 -97.4567 358° North 163 188 8,500  Level Houston Center
12:25PM 28.2161 -97.4578 359° North 167 192 8,500  Level Houston Center
12:26PM 28.2636 -97.4567 North 169 194 8,500  Level Houston Center
12:27PM 28.3100 -97.4564 360° North 168 193 8,500  Level Houston Center
12:28PM 28.3647 -97.4536 North 164 189 8,500  Level Houston Center
12:29PM 28.4122 -97.4539 360° North 167 192 8,500  Level Houston Center
12:30PM 28.4600 -97.4536 360° North 170 196 8,500  Level Houston Center
12:31PM 28.5081 -97.4547 359° North 171 197 8,500  Level Houston Center
12:32PM 28.5553 -97.4550 360° North 170 196 8,500  Level Houston Center
12:33PM 28.6031 -97.4569 358° North 170 196 8,500  Level Houston Center
12:34PM 28.6578 -97.4547 North 167 192 8,500  Level Houston Center
12:35PM 28.7044 -97.4456 10° North 167 192 8,500  Level Houston Center
12:36PM 28.7525 -97.4444 North 170 196 8,600  Climbing Houston Center
12:37PM 28.8000 -97.4456 359° North 170 196 8,600  Level Houston Center
12:38PM 28.8461 -97.4436 North 167 192 8,600 -60 Level Houston Center
12:40PM 28.8931 -97.4425 North 168 193 8,500 -60 Descending Houston Center
12:41PM 28.9486 -97.4414 North 167 192 8,500  Level Houston Center
12:42PM 28.9950 -97.4403 North 166 191 8,500  Level Houston Center
12:43PM 29.0425 -97.4403 360° North 168 193 8,500  Level Houston Center
12:44PM 29.0886 -97.4381 North 166 191 8,500  Level Houston Center
12:45PM 29.1350 -97.4364 North 167 192 8,500  Level Houston Center
12:46PM 29.1817 -97.4364 360° North 167 192 8,500  Level Houston Center
12:47PM 29.2383 -97.4358 360° North 169 194 8,500  Level Houston Center
12:48PM 29.2869 -97.4339 North 172 198 8,500  Level Houston Center
12:49PM 29.3339 -97.4319 North 171 197 8,500  Level Houston Center
12:50PM 29.3814 -97.4308 North 170 196 8,500  Level Houston Center
12:51PM 29.4294 -97.4297 North 171 197 8,500  Level Houston Center
12:52PM 29.4761 -97.4303 359° North 168 193 8,500  Level Houston Center
12:53PM 29.5336 -97.4278 North 170 196 8,500  Level Houston Center
12:54PM 29.5817 -97.4278 360° North 172 198 8,500  Level Houston Center
12:55PM 29.6294 -97.4261 North 172 198 8,500  Level Houston Center
12:56PM 29.6792 -97.4236 North 177 204 8,500 -300 Level Houston Center
12:57PM 29.7292 -97.4219 North 178 205 8,000 -540 Descending Houston Center
12:58PM 29.7797 -97.4222 360° North 180 207 7,500 -540 Descending Houston Center
12:59PM 29.8317 -97.4217 North 185 213 7,000 -540 Descending Houston Center
01:00PM 29.8917 -97.4217 360° North 181 208 6,400 -600 Descending Houston Center
01:01PM 29.9439 -97.4178 North 184 212 5,800 -660 Descending Houston Center
01:02PM 29.9958 -97.4211 357° North 186 214 5,100 -660 Descending Houston Center
01:03PM 30.0453 -97.4275 354° North 182 209 4,500 -600 Descending Houston Center
01:04PM 30.0969 -97.4328 355° North 179 206 3,900 -540 Descending Houston Center
01:05PM 30.1467 -97.4369 356° North 177 204 3,400 -480 Descending Houston Center
01:06PM 30.1969 -97.4422 355° North 179 206 3,000 -480 Descending Houston Center
01:07PM 30.2511 -97.4461 356° North 175 201 2,500 -540 Descending Houston Center